Time;durP1;ratioP1;P1;durP2;ratioP2;P2;SDS_P1;SDS_P2;PMS_P1;PMS_P2;Temp;Humidity;BMP_temperature;BMP_pressure;BME280_temperature;BME280_humidity;BME280_pressure;Samples;Min_cycle;Max_cycle;Signal;HPM_P1;HPM_P2
2022/10/07 00:01:45;;;;;;;6.95;2.47;;;8.90;99.90;;;;;;5043570;28;20115;-87
2022/10/07 00:04:10;;;;;;;14.45;2.90;;;8.90;99.90;;;;;;5063963;28;20045;-86
2022/10/07 00:06:36;;;;;;;7.60;2.10;;;8.90;99.90;;;;;;5048919;28;20699;-86
2022/10/07 00:09:02;;;;;;;8.32;2.20;;;8.90;99.90;;;;;;5067238;28;20048;-87
2022/10/07 00:11:28;;;;;;;11.93;2.75;;;8.80;99.90;;;;;;5064145;28;20136;-87
2022/10/07 00:13:59;;;;;;;6.28;2.83;;;8.80;99.90;;;;;;5069362;28;20129;-86
2022/10/07 00:16:31;;;;;;;8.93;2.70;;;8.90;99.90;;;;;;5064337;28;20064;-86
2022/10/07 00:18:59;;;;;;;6.28;2.75;;;8.80;99.90;;;;;;5065829;28;20136;-86
2022/10/07 00:21:27;;;;;;;8.90;2.88;;;8.80;99.90;;;;;;5051288;28;20043;-85
2022/10/07 00:23:53;;;;;;;5.95;3.03;;;8.80;99.90;;;;;;5054806;28;20043;-86
2022/10/07 00:26:23;;;;;;;7.18;2.95;;;8.80;99.90;;;;;;5046980;28;20045;-86
2022/10/07 00:28:49;;;;;;;7.32;2.80;;;8.70;99.90;;;;;;5062511;28;20051;-86
2022/10/07 00:31:21;;;;;;;6.07;2.80;;;8.80;99.90;;;;;;5037267;28;20069;-86
2022/10/07 00:33:47;;;;;;;10.18;2.80;;;8.70;99.90;;;;;;5062948;28;20055;-86
2022/10/07 00:36:16;;;;;;;9.30;2.97;;;8.80;99.90;;;;;;5062859;28;20396;-86
2022/10/07 00:38:42;;;;;;;9.05;3.30;;;8.70;99.90;;;;;;5068109;28;20096;-86
2022/10/07 00:41:19;;;;;;;6.75;2.97;;;8.70;99.90;;;;;;5062795;28;20103;-86
2022/10/07 00:43:45;;;;;;;6.32;3.55;;;8.70;99.90;;;;;;5066491;28;20040;-86
2022/10/07 00:46:43;;;;;;;5.93;2.80;;;8.70;99.90;;;;;;5061781;28;20082;-86
2022/10/07 00:49:12;;;;;;;9.70;3.30;;;8.70;99.90;;;;;;5025459;28;20053;-86
2022/10/07 00:51:39;;;;;;;8.57;3.03;;;8.60;99.90;;;;;;5068484;28;20036;-86
2022/10/07 00:54:12;;;;;;;12.32;4.05;;;8.70;99.90;;;;;;5052279;28;20074;-87
2022/10/07 00:56:38;;;;;;;6.63;3.15;;;8.70;99.90;;;;;;5071166;28;20045;-87
2022/10/07 00:59:05;;;;;;;6.93;3.17;;;8.70;99.90;;;;;;5048165;28;20102;-87
2022/10/07 01:01:30;;;;;;;11.35;4.20;;;8.60;99.90;;;;;;5055051;28;20047;-86
2022/10/07 01:03:56;;;;;;;17.33;3.75;;;8.60;99.90;;;;;;5065628;28;20092;-87
2022/10/07 01:06:22;;;;;;;8.95;3.08;;;8.60;99.90;;;;;;5049441;28;20045;-86
2022/10/07 01:08:51;;;;;;;6.07;2.47;;;8.60;99.90;;;;;;5064366;28;20104;-86
2022/10/07 01:11:35;;;;;;;8.10;2.65;;;8.60;99.90;;;;;;5068376;28;20044;-87
2022/10/07 01:14:06;;;;;;;8.93;2.78;;;8.60;99.90;;;;;;5082148;28;20091;-86
2022/10/07 01:16:47;;;;;;;11.98;3.22;;;8.60;99.90;;;;;;5068314;28;20048;-86
2022/10/07 01:19:32;;;;;;;8.20;2.92;;;8.60;99.90;;;;;;5067704;28;20040;-86
2022/10/07 01:22:33;;;;;;;6.40;2.97;;;8.60;99.90;;;;;;5064650;28;20059;-86
2022/10/07 01:25:50;;;;;;;8.75;3.33;;;8.50;99.90;;;;;;5046396;28;20498;-86
2022/10/07 01:28:19;;;;;;;7.35;2.72;;;8.50;99.90;;;;;;5054865;28;20057;-86
2022/10/07 01:30:51;;;;;;;9.05;2.70;;;8.50;99.90;;;;;;5052299;28;20056;-83
2022/10/07 01:33:21;;;;;;;9.35;2.83;;;8.50;99.90;;;;;;5048484;28;20124;-83
2022/10/07 01:35:49;;;;;;;10.82;3.63;;;8.50;99.90;;;;;;5067808;28;20091;-83
2022/10/07 01:38:18;;;;;;;7.22;2.67;;;8.40;99.90;;;;;;5071436;28;20992;-83
2022/10/07 01:40:59;;;;;;;11.00;2.67;;;8.50;99.90;;;;;;5053499;28;20056;-84
2022/10/07 01:43:25;;;;;;;11.15;3.17;;;8.40;99.90;;;;;;5057216;28;20045;-83
2022/10/07 01:45:53;;;;;;;5.35;2.67;;;8.40;99.90;;;;;;5062504;28;20144;-83
2022/10/07 01:48:19;;;;;;;11.85;2.92;;;8.40;99.90;;;;;;5069286;28;20040;-84
2022/10/07 01:50:47;;;;;;;7.38;2.92;;;8.40;99.90;;;;;;5069696;28;20059;-83
2022/10/07 01:53:35;;;;;;;9.88;3.20;;;8.40;99.90;;;;;;5063042;28;20112;-83
2022/10/07 01:56:44;;;;;;;9.68;3.13;;;8.40;99.90;;;;;;5076007;28;20048;-83
2022/10/07 01:59:38;;;;;;;9.80;3.55;;;8.40;99.90;;;;;;5080139;28;20123;-83
2022/10/07 02:02:17;;;;;;;8.95;3.08;;;8.30;99.90;;;;;;5076783;28;20057;-83
2022/10/07 02:05:10;;;;;;;10.05;3.33;;;8.30;99.90;;;;;;5090107;28;20052;-83
2022/10/07 02:08:07;;;;;;;10.20;3.50;;;8.30;99.90;;;;;;5066937;28;20059;-83
2022/10/07 02:10:40;;;;;;;8.68;3.38;;;8.30;99.90;;;;;;5064033;28;20064;-84
2022/10/07 02:13:29;;;;;;;7.57;3.15;;;8.30;99.90;;;;;;5070991;28;20049;-83
2022/10/07 02:16:09;;;;;;;10.35;2.58;;;8.30;99.90;;;;;;5051587;28;20072;-83
2022/10/07 02:18:38;;;;;;;9.85;3.25;;;8.30;99.90;;;;;;5066683;28;20032;-83
2022/10/07 02:21:05;;;;;;;11.55;3.28;;;8.20;99.90;;;;;;5065125;28;20125;-83
2022/10/07 02:23:33;;;;;;;10.70;2.72;;;8.30;99.90;;;;;;5050970;28;20034;-83
2022/10/07 02:26:01;;;;;;;13.75;3.05;;;8.30;99.90;;;;;;5063738;28;20116;-83
2022/10/07 02:28:29;;;;;;;7.57;2.47;;;8.20;99.90;;;;;;5066522;28;20055;-83
2022/10/07 02:31:00;;;;;;;13.30;2.67;;;8.20;99.90;;;;;;5080265;28;20107;-83
2022/10/07 02:33:29;;;;;;;10.45;2.80;;;8.20;99.90;;;;;;5071705;28;20036;-84
2022/10/07 02:35:58;;;;;;;15.20;2.88;;;8.20;99.90;;;;;;5065856;28;20049;-84
2022/10/07 02:38:25;;;;;;;6.00;2.70;;;8.20;99.90;;;;;;5064548;28;20056;-84
2022/10/07 02:41:13;;;;;;;11.05;3.10;;;8.20;99.90;;;;;;5069707;28;20041;-83
2022/10/07 02:43:55;;;;;;;11.02;2.80;;;8.20;99.90;;;;;;5065788;28;20625;-83
2022/10/07 02:46:35;;;;;;;8.20;3.08;;;8.20;99.90;;;;;;5068779;28;20045;-83
2022/10/07 02:49:06;;;;;;;4.82;3.10;;;8.30;99.90;;;;;;5073432;28;20057;-83
2022/10/07 02:51:39;;;;;;;8.40;2.78;;;8.20;99.90;;;;;;5066617;28;20048;-83
2022/10/07 02:54:05;;;;;;;12.20;2.67;;;8.20;99.90;;;;;;5068343;28;20040;-83
2022/10/07 02:56:35;;;;;;;10.52;2.83;;;8.20;99.90;;;;;;5056873;28;20051;-83
2022/10/07 02:59:03;;;;;;;11.20;2.55;;;8.20;99.90;;;;;;5062463;28;20061;-83
2022/10/07 03:01:33;;;;;;;9.82;2.97;;;8.20;99.90;;;;;;5064125;28;20079;-83
2022/10/07 03:03:59;;;;;;;7.32;2.42;;;8.20;99.90;;;;;;5066564;28;20525;-83
2022/10/07 03:06:28;;;;;;;10.30;2.95;;;8.20;99.90;;;;;;5062756;28;20048;-83
2022/10/07 03:08:56;;;;;;;11.48;3.45;;;8.20;99.90;;;;;;5061518;28;20116;-83
2022/10/07 03:11:23;;;;;;;11.00;3.35;;;8.20;99.90;;;;;;5062211;28;20036;-82
2022/10/07 03:13:48;;;;;;;8.85;3.15;;;8.10;99.90;;;;;;5040275;28;20041;-82
2022/10/07 03:16:14;;;;;;;12.70;3.10;;;8.20;99.90;;;;;;5037753;28;20132;-82
2022/10/07 03:18:40;;;;;;;9.63;2.55;;;8.20;99.90;;;;;;5063116;28;20044;-83
2022/10/07 03:21:07;;;;;;;5.45;2.63;;;8.10;99.90;;;;;;5032394;28;20108;-82
2022/10/07 03:23:33;;;;;;;7.65;2.72;;;8.20;99.90;;;;;;5066984;28;20072;-83
2022/10/07 03:25:59;;;;;;;12.07;3.00;;;8.10;99.90;;;;;;5065086;28;20045;-82
2022/10/07 03:28:27;;;;;;;8.10;2.95;;;8.10;99.90;;;;;;5064620;28;20519;-83
2022/10/07 03:30:53;;;;;;;12.02;3.00;;;8.10;99.90;;;;;;5049239;28;20067;-83
2022/10/07 03:33:23;;;;;;;6.47;2.65;;;8.10;99.90;;;;;;5033157;28;20045;-83
2022/10/07 03:35:49;;;;;;;12.10;3.45;;;8.10;99.90;;;;;;5040623;28;20033;-82
2022/10/07 03:38:15;;;;;;;11.75;3.97;;;8.10;99.90;;;;;;5065505;28;23292;-84
2022/10/07 03:40:43;;;;;;;6.93;2.53;;;8.10;99.90;;;;;;5066855;28;20174;-84
2022/10/07 03:43:08;;;;;;;18.90;3.85;;;8.20;99.90;;;;;;5064711;28;20536;-84
2022/10/07 03:45:36;;;;;;;7.00;3.03;;;8.20;99.90;;;;;;5063961;28;21203;-83
2022/10/07 03:48:02;;;;;;;10.65;2.63;;;8.20;99.90;;;;;;5052868;28;20060;-82
2022/10/07 03:50:28;;;;;;;13.15;2.95;;;8.20;99.90;;;;;;5068013;28;20048;-83
2022/10/07 03:52:54;;;;;;;12.98;3.25;;;8.20;99.90;;;;;;5070643;28;20041;-83
2022/10/07 03:55:20;;;;;;;9.60;3.10;;;8.30;99.90;;;;;;5070635;28;20040;-84
2022/10/07 03:57:56;;;;;;;10.32;3.40;;;8.30;99.90;;;;;;5041704;28;20071;-83
2022/10/07 04:00:24;;;;;;;10.20;3.42;;;8.40;99.90;;;;;;5068243;28;20707;-83
2022/10/07 04:02:51;;;;;;;9.70;3.88;;;8.40;99.90;;;;;;5071039;28;20045;-84
2022/10/07 04:05:19;;;;;;;12.00;3.40;;;8.50;99.90;;;;;;5054617;28;20468;-83
2022/10/07 04:07:49;;;;;;;13.13;3.78;;;8.50;99.90;;;;;;5064837;28;20045;-83
2022/10/07 04:10:16;;;;;;;10.52;3.58;;;8.60;99.90;;;;;;5072849;28;20112;-84
2022/10/07 04:12:43;;;;;;;12.90;3.22;;;8.50;99.90;;;;;;5074716;28;20041;-82
2022/10/07 04:15:12;;;;;;;10.90;3.75;;;8.60;99.90;;;;;;5058475;28;20163;-83
2022/10/07 04:17:39;;;;;;;12.45;3.33;;;8.60;99.90;;;;;;5068421;28;20115;-83
2022/10/07 04:20:05;;;;;;;14.73;3.80;;;8.60;99.90;;;;;;5063172;28;20083;-83
2022/10/07 04:22:31;;;;;;;15.88;4.25;;;8.60;99.90;;;;;;5048943;28;20040;-83
2022/10/07 04:27:41;;;;;;;12.63;3.47;;;8.50;99.90;;;;;;5065459;28;20049;-83
2022/10/07 04:30:08;;;;;;;8.35;3.67;;;8.50;99.90;;;;;;5045355;28;20048;-83
2022/10/07 04:32:34;;;;;;;16.23;4.57;;;8.50;99.90;;;;;;5068768;28;20044;-84
2022/10/07 04:35:04;;;;;;;16.45;3.92;;;8.50;99.90;;;;;;5068983;28;20596;-82
2022/10/07 04:37:29;;;;;;;14.00;4.97;;;8.50;99.90;;;;;;5068265;28;20049;-83
2022/10/07 04:39:55;;;;;;;7.72;3.22;;;8.40;99.90;;;;;;5048945;28;20064;-83
2022/10/07 04:45:07;;;;;;;11.98;3.85;;;8.40;99.90;;;;;;5065207;28;20048;-83
2022/10/07 04:47:34;;;;;;;10.05;4.07;;;8.40;99.90;;;;;;5062712;28;20048;-83
2022/10/07 04:50:01;;;;;;;10.43;4.13;;;8.40;99.90;;;;;;5068644;28;20049;-83
2022/10/07 04:52:27;;;;;;;11.80;4.13;;;8.30;99.90;;;;;;5066342;28;20052;-83
2022/10/07 04:54:53;;;;;;;9.85;3.40;;;8.30;99.90;;;;;;5066650;28;20044;-83
2022/10/07 04:57:19;;;;;;;16.15;3.47;;;8.30;99.90;;;;;;5045558;28;20049;-83
2022/10/07 04:59:45;;;;;;;11.85;3.88;;;8.30;99.90;;;;;;5036199;28;20036;-83
2022/10/07 05:02:10;;;;;;;12.95;3.88;;;8.30;99.90;;;;;;5068294;28;20135;-83
2022/10/07 05:04:36;;;;;;;14.40;4.35;;;8.30;99.90;;;;;;5068266;28;20049;-84
2022/10/07 05:07:02;;;;;;;17.90;3.90;;;8.30;99.90;;;;;;5056167;28;20047;-85
2022/10/07 05:09:28;;;;;;;11.25;4.15;;;8.30;99.90;;;;;;5052939;28;20060;-86
2022/10/07 05:11:54;;;;;;;13.80;3.97;;;8.30;99.90;;;;;;5053994;28;20041;-85
2022/10/07 05:14:21;;;;;;;10.10;3.45;;;8.30;99.90;;;;;;5054700;28;20097;-85
2022/10/07 05:16:48;;;;;;;15.65;4.32;;;8.20;99.90;;;;;;5052556;28;20037;-86
2022/10/07 05:19:14;;;;;;;22.20;4.35;;;8.20;99.90;;;;;;5051658;28;20044;-87
2022/10/07 05:21:39;;;;;;;13.70;3.83;;;8.20;99.90;;;;;;5061869;28;20044;-87
2022/10/07 05:24:05;;;;;;;14.45;4.30;;;8.30;99.90;;;;;;5036487;28;20162;-86
2022/10/07 05:26:31;;;;;;;15.23;4.65;;;8.30;99.90;;;;;;5065998;28;20049;-86
2022/10/07 05:28:56;;;;;;;9.80;3.40;;;8.30;99.90;;;;;;5048944;28;20110;-86
2022/10/07 05:31:24;;;;;;;11.90;3.83;;;8.30;99.90;;;;;;5051412;28;20514;-86
2022/10/07 05:33:50;;;;;;;12.32;3.83;;;8.20;99.90;;;;;;5062776;28;20507;-86
2022/10/07 05:36:16;;;;;;;14.85;3.83;;;8.20;99.90;;;;;;5035269;28;20051;-86
2022/10/07 05:38:41;;;;;;;15.55;3.75;;;8.20;99.90;;;;;;5068281;28;20126;-85
2022/10/07 05:41:09;;;;;;;8.55;3.72;;;8.20;99.90;;;;;;5064812;28;20044;-86
2022/10/07 05:43:39;;;;;;;15.45;4.45;;;8.20;99.90;;;;;;5058454;28;20111;-87
2022/10/07 05:46:11;;;;;;;17.02;4.88;;;8.20;99.90;;;;;;5064359;28;20040;-86
2022/10/07 05:48:37;;;;;;;21.50;7.75;;;8.20;99.90;;;;;;5071921;28;20057;-87
2022/10/07 05:51:03;;;;;;;26.30;4.97;;;8.20;99.90;;;;;;5062897;28;20028;-85
2022/10/07 05:53:30;;;;;;;14.43;4.72;;;8.20;99.90;;;;;;5048679;28;20120;-86
2022/10/07 05:55:56;;;;;;;16.05;5.22;;;8.20;99.90;;;;;;5065273;28;20047;-84
2022/10/07 05:58:22;;;;;;;10.98;4.07;;;8.30;99.90;;;;;;5067552;28;20414;-85
2022/10/07 06:00:55;;;;;;;8.60;4.18;;;8.20;99.90;;;;;;5067775;28;20044;-84
2022/10/07 06:03:21;;;;;;;;;;;8.20;99.90;;;;;;5067326;28;20079;-87
2022/10/07 06:05:48;;;;;;;15.07;4.63;;;8.30;99.90;;;;;;5079717;28;19924;-86
2022/10/07 06:08:14;;;;;;;12.40;4.30;;;8.30;99.90;;;;;;5080191;28;20048;-86
2022/10/07 06:13:28;;;;;;;11.90;3.90;;;8.40;99.90;;;;;;5051226;28;20072;-86
2022/10/07 06:16:00;;;;;;;17.17;5.15;;;8.50;99.90;;;;;;5058085;28;20075;-87
2022/10/07 06:18:25;;;;;;;17.05;3.88;;;8.60;99.90;;;;;;5053699;28;20510;-86
2022/10/07 06:20:55;;;;;;;20.42;4.43;;;8.80;99.90;;;;;;5030904;28;20068;-87
2022/10/07 06:23:21;;;;;;;19.67;4.00;;;8.80;99.90;;;;;;5059893;28;20136;-87
2022/10/07 06:25:57;;;;;;;15.82;4.45;;;9.00;99.90;;;;;;5038252;28;20072;-87
2022/10/07 06:28:23;;;;;;;22.20;4.40;;;9.00;99.90;;;;;;5056732;28;20084;-87
2022/10/07 06:30:50;;;;;;;19.85;4.30;;;9.20;99.90;;;;;;5053332;28;20029;-87
2022/10/07 06:33:19;;;;;;;13.43;3.17;;;9.20;99.90;;;;;;5053790;28;20048;-87
2022/10/07 06:35:45;;;;;;;12.50;4.05;;;9.20;99.90;;;;;;5056827;28;20114;-88
2022/10/07 06:38:11;;;;;;;6.10;3.15;;;9.20;99.90;;;;;;5072273;28;20041;-87
2022/10/07 06:40:37;;;;;;;12.38;3.10;;;9.30;99.90;;;;;;5060406;28;20036;-87
2022/10/07 06:43:03;;;;;;;12.90;3.05;;;9.30;99.90;;;;;;5061797;28;20045;-88
2022/10/07 06:45:31;;;;;;;14.57;4.32;;;9.30;99.90;;;;;;5059299;28;20049;-88
2022/10/07 06:47:56;;;;;;;11.93;3.58;;;9.40;99.90;;;;;;5043359;28;20048;-87
2022/10/07 06:50:22;;;;;;;14.55;3.10;;;9.40;99.90;;;;;;5044574;28;20694;-87
2022/10/07 06:52:48;;;;;;;11.48;4.90;;;9.40;99.90;;;;;;5053513;28;20066;-87
2022/10/07 06:55:14;;;;;;;16.63;4.05;;;9.50;99.90;;;;;;5062267;28;20053;-87
2022/10/07 06:57:41;;;;;;;11.63;3.83;;;9.50;99.90;;;;;;5044968;28;20110;-87
2022/10/07 07:00:08;;;;;;;14.15;3.30;;;9.50;99.90;;;;;;5066945;28;20052;-86
2022/10/07 07:02:34;;;;;;;14.48;3.35;;;9.60;99.90;;;;;;5066540;28;20088;-88
2022/10/07 07:05:03;;;;;;;12.07;3.30;;;9.70;99.90;;;;;;5075165;28;20094;-85
2022/10/07 07:07:29;;;;;;;13.10;3.38;;;9.70;99.90;;;;;;5035860;28;20041;-86
2022/10/07 07:09:55;;;;;;;10.85;2.92;;;9.80;99.90;;;;;;5069786;28;20032;-85
2022/10/07 07:12:24;;;;;;;21.10;4.78;;;9.80;99.90;;;;;;5041682;28;20164;-86
2022/10/07 07:14:50;;;;;;;9.23;2.88;;;9.80;99.90;;;;;;5063635;28;20025;-86
2022/10/07 07:17:17;;;;;;;11.15;3.05;;;9.90;99.90;;;;;;5053073;28;20162;-86
2022/10/07 07:19:44;;;;;;;12.10;3.05;;;10.00;99.90;;;;;;5043991;28;20049;-86
2022/10/07 07:22:10;;;;;;;13.48;3.05;;;10.10;99.90;;;;;;5054654;28;20048;-86
2022/10/07 07:24:35;;;;;;;11.00;3.50;;;10.10;99.90;;;;;;5055638;28;20100;-86
2022/10/07 07:27:01;;;;;;;8.48;2.90;;;10.30;99.90;;;;;;5062901;28;20095;-86
2022/10/07 07:29:27;;;;;;;18.58;3.65;;;10.40;99.90;;;;;;5055931;28;20041;-86
2022/10/07 07:31:53;;;;;;;10.13;2.92;;;10.50;99.90;;;;;;5059815;28;20077;-84
2022/10/07 07:34:19;;;;;;;9.23;2.20;;;10.50;99.90;;;;;;5053123;28;20068;-84
2022/10/07 07:36:47;;;;;;;11.20;2.78;;;10.60;99.90;;;;;;5053315;28;20495;-84
2022/10/07 07:39:16;;;;;;;15.35;2.75;;;10.60;99.90;;;;;;5046849;28;20431;-84
2022/10/07 07:41:45;;;;;;;14.20;3.10;;;10.60;99.90;;;;;;5060553;28;20100;-85
2022/10/07 07:44:13;;;;;;;7.85;2.58;;;10.70;99.90;;;;;;5065778;28;20048;-85
2022/10/07 07:46:42;;;;;;;24.35;9.82;;;10.70;99.90;;;;;;5059023;28;20047;-84
2022/10/07 07:49:11;;;;;;;17.20;2.90;;;10.80;99.90;;;;;;5068422;28;20068;-85
2022/10/07 07:51:38;;;;;;;13.93;2.92;;;10.70;99.90;;;;;;5054202;28;20037;-85
2022/10/07 07:54:05;;;;;;;14.05;3.05;;;10.70;99.90;;;;;;5063735;28;20044;-88
2022/10/07 07:56:31;;;;;;;12.38;2.38;;;10.80;99.90;;;;;;5061418;28;20041;-86
2022/10/07 07:58:58;;;;;;;13.10;2.67;;;10.90;99.90;;;;;;5041066;28;20071;-86
2022/10/07 08:01:24;;;;;;;19.83;2.47;;;11.00;99.90;;;;;;5072388;28;20053;-87
2022/10/07 08:03:51;;;;;;;12.15;2.70;;;11.10;99.90;;;;;;5041729;28;20207;-87
2022/10/07 08:06:19;;;;;;;19.73;4.13;;;11.20;99.90;;;;;;5047998;28;20041;-87
2022/10/07 08:08:45;;;;;;;14.57;2.58;;;11.30;99.90;;;;;;5056586;28;20457;-87
2022/10/07 08:11:20;;;;;;;11.23;2.83;;;11.40;99.90;;;;;;5039852;28;20083;-86
2022/10/07 08:13:46;;;;;;;11.70;2.50;;;11.50;99.90;;;;;;5053498;28;20108;-86
2022/10/07 08:16:15;;;;;;;11.77;2.38;;;11.60;99.90;;;;;;5063266;28;20092;-87
2022/10/07 08:18:44;;;;;;;10.27;2.25;;;11.60;99.90;;;;;;5059317;28;20063;-86
2022/10/07 08:21:11;;;;;;;9.00;2.67;;;11.70;99.90;;;;;;5062962;28;20029;-86
2022/10/07 08:23:38;;;;;;;15.02;2.55;;;11.80;99.90;;;;;;5042706;28;20040;-87
2022/10/07 08:26:06;;;;;;;14.52;2.67;;;11.80;99.90;;;;;;5058620;28;20045;-87
2022/10/07 08:28:33;;;;;;;9.65;2.28;;;11.90;99.90;;;;;;5052809;28;20043;-86
2022/10/07 08:31:11;;;;;;;10.45;2.63;;;12.00;99.90;;;;;;5042655;28;20045;-87
2022/10/07 08:33:39;;;;;;;11.48;2.05;;;12.20;99.90;;;;;;5047127;28;20439;-86
2022/10/07 08:36:06;;;;;;;11.25;2.10;;;12.20;99.90;;;;;;5074794;28;20107;-87
2022/10/07 08:38:35;;;;;;;13.02;2.45;;;12.40;99.90;;;;;;5040257;28;20060;-86
2022/10/07 08:41:32;;;;;;;10.18;1.63;;;12.60;99.90;;;;;;5059592;28;20053;-86
2022/10/07 08:44:21;;;;;;;13.02;2.25;;;12.60;99.90;;;;;;5054306;28;20057;-85
2022/10/07 08:47:02;;;;;;;10.15;2.28;;;12.70;99.90;;;;;;5058187;28;20032;-86
2022/10/07 08:49:47;;;;;;;11.85;2.08;;;12.80;99.90;;;;;;5075878;28;20060;-86
2022/10/07 08:52:28;;;;;;;9.20;2.03;;;12.90;99.90;;;;;;5057965;28;20088;-85
2022/10/07 08:54:53;;;;;;;9.73;1.90;;;13.00;99.90;;;;;;5057803;28;20037;-86
2022/10/07 08:57:51;;;;;;;10.85;2.53;;;13.10;99.90;;;;;;5044621;28;20036;-87
2022/10/07 09:00:20;;;;;;;10.77;2.03;;;13.20;99.90;;;;;;5050519;28;20385;-86
2022/10/07 09:03:17;;;;;;;13.35;2.00;;;13.30;99.90;;;;;;5048440;28;20109;-86
2022/10/07 09:05:48;;;;;;;10.52;2.88;;;13.50;99.90;;;;;;5056622;28;20080;-86
2022/10/07 09:08:31;;;;;;;12.60;1.88;;;13.60;99.90;;;;;;5056787;28;20056;-87
2022/10/07 09:11:14;;;;;;;10.93;2.35;;;13.70;99.90;;;;;;5041879;28;20053;-86
2022/10/07 09:13:51;;;;;;;8.13;2.25;;;13.80;99.90;;;;;;5062238;28;20045;-85
2022/10/07 09:16:25;;;;;;;14.30;2.38;;;14.00;99.90;;;;;;5061748;28;20058;-86
2022/10/07 09:18:55;;;;;;;18.60;3.58;;;14.10;99.90;;;;;;5064534;28;20757;-87
2022/10/07 09:21:38;;;;;;;13.73;3.00;;;14.10;99.90;;;;;;5046018;28;20041;-85
2022/10/07 09:24:23;;;;;;;11.52;2.05;;;14.10;99.90;;;;;;5063116;28;20049;-85
2022/10/07 09:26:55;;;;;;;11.30;2.20;;;14.20;99.90;;;;;;5066986;28;20108;-88
2022/10/07 09:29:22;;;;;;;;;;;14.40;99.90;;;;;;5064139;28;20056;-86
2022/10/07 09:31:48;;;;;;;6.75;1.50;;;14.60;99.90;;;;;;5075038;28;19927;-86
2022/10/07 09:34:26;;;;;;;5.63;1.75;;;15.10;99.90;;;;;;5064908;28;20258;-85
2022/10/07 09:37:13;;;;;;;14.13;1.83;;;15.70;99.90;;;;;;5057964;28;20576;-86
2022/10/07 09:39:40;;;;;;;12.73;2.45;;;16.50;99.90;;;;;;5069527;28;20036;-85
2022/10/07 09:42:14;;;;;;;7.18;2.63;;;17.20;99.90;;;;;;5045614;28;20103;-88
2022/10/07 09:44:40;;;;;;;10.55;2.13;;;17.40;99.90;;;;;;5060616;28;20559;-86
2022/10/07 09:47:20;;;;;;;12.18;2.45;;;17.30;99.90;;;;;;5067571;28;20092;-86
2022/10/07 09:49:58;;;;;;;8.50;1.85;;;17.00;99.90;;;;;;5060281;28;20057;-86
2022/10/07 09:52:27;;;;;;;10.48;2.13;;;16.90;99.90;;;;;;5060654;28;20056;-86
2022/10/07 09:54:56;;;;;;;16.13;2.20;;;17.00;99.90;;;;;;5063239;28;20451;-87
2022/10/07 09:57:24;;;;;;;10.27;2.22;;;17.10;99.90;;;;;;5041501;28;20040;-86
2022/10/07 09:59:50;;;;;;;6.10;1.50;;;17.20;99.90;;;;;;5062226;28;20040;-85
2022/10/07 10:02:23;;;;;;;12.43;1.75;;;17.30;99.90;;;;;;5069098;28;20075;-85
2022/10/07 10:04:55;;;;;;;11.57;1.55;;;17.30;99.90;;;;;;5048735;28;20044;-86
2022/10/07 10:07:27;;;;;;;8.43;2.13;;;17.30;99.90;;;;;;5043205;28;20053;-85
2022/10/07 10:10:02;;;;;;;10.38;1.90;;;17.20;99.90;;;;;;5060303;28;20037;-84
2022/10/07 10:12:36;;;;;;;15.27;2.75;;;17.10;99.90;;;;;;5075338;28;20048;-85
2022/10/07 10:15:40;;;;;;;9.05;1.98;;;17.00;99.90;;;;;;5080984;28;20119;-86
2022/10/07 10:18:26;;;;;;;12.48;2.00;;;16.80;99.90;;;;;;5064365;28;20100;-84
2022/10/07 10:20:52;;;;;;;13.13;2.05;;;16.60;99.90;;;;;;5044153;28;20037;-84
2022/10/07 10:23:40;;;;;;;11.05;1.70;;;16.60;99.90;;;;;;5042261;28;20054;-84
2022/10/07 10:26:24;;;;;;;9.57;2.90;;;16.70;99.90;;;;;;5064123;28;20048;-85
2022/10/07 10:28:59;;;;;;;10.55;2.58;;;16.70;99.90;;;;;;5075390;28;20051;-85
2022/10/07 10:31:31;;;;;;;8.95;1.58;;;16.90;99.90;;;;;;5066923;28;20059;-84
2022/10/07 10:34:15;;;;;;;;;;;16.90;99.90;;;;;;5077517;28;20053;-84
2022/10/07 10:36:52;;;;;;;8.25;1.83;;;16.90;99.90;;;;;;5064871;28;19935;-85
2022/10/07 10:39:39;;;;;;;8.32;1.95;;;16.90;99.90;;;;;;5080471;28;20487;-85
2022/10/07 10:42:13;;;;;;;11.18;2.22;;;16.90;99.90;;;;;;5075906;28;20060;-83
2022/10/07 10:45:27;;;;;;;9.25;2.30;;;16.90;99.90;;;;;;5065182;28;20041;-85
2022/10/07 10:48:23;;;;;;;17.98;2.55;;;17.00;99.90;;;;;;5044127;28;20060;-84
2022/10/07 10:51:09;;;;;;;10.52;2.33;;;17.10;99.90;;;;;;5043232;28;20049;-83
2022/10/07 10:54:02;;;;;;;19.38;3.08;;;17.10;99.90;;;;;;5068568;28;20045;-84
2022/10/07 10:56:44;;;;;;;15.10;2.45;;;17.20;99.90;;;;;;5070099;28;20139;-83
2022/10/07 10:59:51;;;;;;;20.48;2.67;;;17.20;99.90;;;;;;5065624;28;20049;-84
2022/10/07 11:02:28;;;;;;;7.47;1.92;;;17.10;99.90;;;;;;5060442;28;20061;-84
2022/10/07 11:05:23;;;;;;;7.60;2.03;;;17.10;99.90;;;;;;5059580;28;20084;-83
2022/10/07 11:07:54;;;;;;;11.82;1.90;;;17.10;99.90;;;;;;5055170;28;20061;-83
2022/10/07 11:10:26;;;;;;;9.00;1.92;;;17.20;99.90;;;;;;5075803;28;20056;-84
2022/10/07 11:13:11;;;;;;;9.98;2.15;;;17.30;99.90;;;;;;5067560;28;20045;-83
2022/10/07 11:16:10;;;;;;;11.25;2.17;;;17.40;99.90;;;;;;5058413;28;20048;-84
2022/10/07 11:18:48;;;;;;;8.70;2.08;;;17.50;99.90;;;;;;5051400;28;20057;-84
2022/10/07 11:21:23;;;;;;;10.73;2.35;;;17.70;99.90;;;;;;5059693;28;20068;-83
2022/10/07 11:23:57;;;;;;;10.52;2.28;;;17.80;99.90;;;;;;5067509;28;20071;-83
2022/10/07 11:26:27;;;;;;;10.40;1.83;;;18.00;99.90;;;;;;5073742;28;20043;-84
2022/10/07 11:28:54;;;;;;;10.13;1.88;;;18.10;99.90;;;;;;5067733;28;20086;-84
2022/10/07 11:31:32;;;;;;;11.15;2.50;;;18.30;99.90;;;;;;5069648;28;20071;-84
2022/10/07 11:34:20;;;;;;;9.75;2.25;;;18.30;99.90;;;;;;5062961;28;20384;-84
2022/10/07 11:36:52;;;;;;;10.80;2.00;;;18.30;99.90;;;;;;5057568;28;20053;-84
2022/10/07 11:39:18;;;;;;;20.98;2.40;;;18.30;99.90;;;;;;5070681;28;20136;-83
2022/10/07 11:41:53;;;;;;;13.45;2.00;;;18.30;99.90;;;;;;5043587;28;20052;-84
2022/10/07 11:44:29;;;;;;;15.57;2.47;;;18.40;99.90;;;;;;5064048;28;20051;-84
2022/10/07 11:46:57;;;;;;;11.65;2.00;;;18.40;99.90;;;;;;5066612;28;20047;-86
2022/10/07 11:49:41;;;;;;;10.00;1.95;;;18.30;99.90;;;;;;5060603;28;20052;-88
2022/10/07 11:52:23;;;;;;;8.15;1.65;;;18.20;99.90;;;;;;5059794;28;20052;-83
2022/10/07 11:55:01;;;;;;;8.77;1.85;;;18.20;99.90;;;;;;5054254;28;20044;-93
2022/10/07 11:57:31;;;;;;;14.68;2.58;;;18.20;99.90;;;;;;5063786;28;20163;-88
2022/10/07 12:00:07;;;;;;;9.88;2.65;;;18.20;99.90;;;;;;5046761;28;20088;-86
2022/10/07 12:02:41;;;;;;;10.57;1.88;;;18.40;99.90;;;;;;5066330;28;20056;-88
2022/10/07 12:05:33;;;;;;;10.98;2.08;;;18.50;99.90;;;;;;5048689;28;20170;-89
2022/10/07 12:08:18;;;;;;;12.20;2.60;;;18.60;99.90;;;;;;5081928;28;20045;-87
2022/10/07 12:10:44;;;;;;;12.65;3.58;;;18.50;99.90;;;;;;5051078;28;20051;-91
2022/10/07 12:13:09;;;;;;;10.02;2.10;;;18.40;99.90;;;;;;5046659;28;20052;-90
2022/10/07 12:15:41;;;;;;;9.45;2.03;;;18.40;99.90;;;;;;5050800;28;20091;-89
2022/10/07 12:18:06;;;;;;;10.35;1.90;;;18.30;99.90;;;;;;5056656;28;20112;-89
2022/10/07 12:20:33;;;;;;;7.57;1.98;;;18.20;99.90;;;;;;5070956;28;20083;-88
2022/10/07 12:25:53;;;;;;;7.10;1.60;;;18.20;99.90;;;;;;5073546;28;20476;-88
2022/10/07 12:28:30;;;;;;;8.60;1.38;;;18.30;99.90;;;;;;5063480;28;20102;-90
2022/10/07 12:31:31;;;;;;;8.07;1.48;;;18.20;99.90;;;;;;5050537;28;20120;-88
2022/10/07 12:34:07;;;;;;;7.18;1.95;;;18.20;99.90;;;;;;5047219;28;20088;-84
2022/10/07 12:36:34;;;;;;;6.60;1.50;;;18.30;99.90;;;;;;5046177;28;20084;-88
2022/10/07 12:38:59;;;;;;;10.25;1.48;;;18.40;99.90;;;;;;5058499;28;20048;-88
2022/10/07 12:41:35;;;;;;;7.55;1.42;;;18.40;99.90;;;;;;5078245;28;20086;-90
2022/10/07 12:44:30;;;;;;;7.75;1.42;;;18.50;99.90;;;;;;5074428;28;20044;-89
2022/10/07 12:46:59;;;;;;;9.60;1.40;;;18.50;99.90;;;;;;5068664;28;20083;-86
2022/10/07 12:49:40;;;;;;;8.55;1.20;;;18.50;99.90;;;;;;5067099;28;20051;-90
2022/10/07 12:52:17;;;;;;;5.32;1.45;;;18.50;99.90;;;;;;5063455;28;20077;-86
2022/10/07 12:55:15;;;;;;;9.57;1.80;;;18.40;99.90;;;;;;5059511;28;20056;-86
2022/10/07 12:57:47;;;;;;;11.50;1.42;;;18.40;99.90;;;;;;5051583;28;20044;-87
2022/10/07 13:00:16;;;;;;;5.38;1.27;;;18.30;99.90;;;;;;5061759;28;20052;-87
2022/10/07 13:03:20;;;;;;;5.13;1.73;;;18.30;99.90;;;;;;5051919;28;20057;-90
2022/10/07 13:05:52;;;;;;;8.13;1.70;;;18.30;99.90;;;;;;5034827;28;20081;-87
2022/10/07 13:08:55;;;;;;;6.28;1.65;;;18.20;99.90;;;;;;5062796;28;20056;-88
2022/10/07 13:11:27;;;;;;;7.53;2.35;;;18.10;99.90;;;;;;5077644;28;20088;-87
2022/10/07 13:13:57;;;;;;;8.25;1.67;;;18.00;99.90;;;;;;5062084;28;20474;-87
2022/10/07 13:16:33;;;;;;;5.18;1.38;;;18.00;99.90;;;;;;5052143;28;20068;-87
2022/10/07 13:19:09;;;;;;;5.88;1.45;;;18.10;99.90;;;;;;5041502;28;20049;-87
2022/10/07 13:21:45;;;;;;;7.75;1.95;;;18.10;99.90;;;;;;5071454;28;20049;-86
2022/10/07 13:24:19;;;;;;;11.73;1.63;;;18.00;99.90;;;;;;5057946;28;20106;-87
2022/10/07 13:26:45;;;;;;;8.18;1.35;;;17.90;99.90;;;;;;5042890;28;20092;-87